Time;durP1;ratioP1;P1;durP2;ratioP2;P2;SDS_P1;SDS_P2;PMS_P1;PMS_P2;Temp;Humidity;BMP_temperature;BMP_pressure;BME280_temperature;BME280_humidity;BME280_pressure;Samples;Min_cycle;Max_cycle;Signal;HPM_P1;HPM_P2
2022/10/17 00:00:46;;;;;;;;;;;;;;;;;;2106505;28;20339;-44
2022/10/17 00:01:47;;;;;;;;;;;;;;;;;;2106425;28;20328;-44
2022/10/17 00:02:48;;;;;;;;;;;;;;;;;;2106491;28;19955;-44
2022/10/17 00:03:49;;;;;;;;;;;;;;;;;;2106460;28;20026;-44
2022/10/17 00:04:50;;;;;;;;;;;;;;;;;;2106350;28;19920;-44
2022/10/17 00:05:51;;;;;;;;;;;;;;;;;;2106545;28;19920;-44
2022/10/17 00:06:51;;;;;;;;;;;;;;;;;;2106389;28;20293;-44
2022/10/17 00:07:52;;;;;;;;;;;;;;;;;;2106420;28;20261;-44
2022/10/17 00:08:53;;;;;;;;;;;;;;;;;;2106413;28;19928;-44
2022/10/17 00:09:54;;;;;;;;;;;;;;;;;;2104034;28;19920;-44
2022/10/17 00:10:54;;;;;;;;;;;;;;;;;;2098132;28;20394;-44
2022/10/17 00:11:55;;;;;;;;;;;;;;;;;;2097893;28;19927;-44
2022/10/17 00:12:56;;;;;;;;;;;;;;;;;;2098069;28;19963;-44
2022/10/17 00:13:57;;;;;;;;;;;;;;;;;;2098031;28;19940;-44
2022/10/17 00:14:58;;;;;;;;;;;;;;;;;;2097964;28;19925;-44
2022/10/17 00:15:58;;;;;;;;;;;;;;;;;;2097981;28;19921;-44
2022/10/17 00:16:59;;;;;;;;;;;;;;;;;;2098097;28;19920;-44
2022/10/17 00:18:00;;;;;;;;;;;;;;;;;;2098011;28;19970;-44
2022/10/17 00:19:01;;;;;;;;;;;;;;;;;;2097972;28;19924;-44
2022/10/17 00:20:02;;;;;;;;;;;;;;;;;;2098022;28;20025;-44
2022/10/17 00:21:03;;;;;;;;;;;;;;;;;;2098060;28;20360;-44
2022/10/17 00:22:03;;;;;;;;;;;;;;;;;;2097987;28;19921;-44
2022/10/17 00:23:04;;;;;;;;;;;;;;;;;;2097971;28;19920;-44
2022/10/17 00:24:05;;;;;;;;;;;;;;;;;;2098067;28;19921;-44
2022/10/17 00:25:06;;;;;;;;;;;;;;;;;;2097903;28;20015;-44
2022/10/17 00:26:07;;;;;;;;;;;;;;;;;;2097993;28;19921;-44
2022/10/17 00:27:08;;;;;;;;;;;;;;;;;;2097942;28;19928;-44
2022/10/17 00:28:08;;;;;;;;;;;;;;;;;;2097896;28;19928;-44
2022/10/17 00:29:09;;;;;;;;;;;;;;;;;;2097917;28;20018;-44
2022/10/17 00:30:10;;;;;;;;;;;;;;;;;;2097856;28;19924;-44
2022/10/17 00:31:11;;;;;;;;;;;;;;;;;;2098046;28;19968;-44
2022/10/17 00:32:12;;;;;;;;;;;;;;;;;;2097930;28;20324;-44
2022/10/17 00:33:13;;;;;;;;;;;;;;;;;;2097879;28;19921;-44
2022/10/17 00:34:13;;;;;;;;;;;;;;;;;;2097972;28;19928;-44
2022/10/17 00:35:14;;;;;;;;;;;;;;;;;;2098160;28;20361;-44
2022/10/17 00:36:15;;;;;;;;;;;;;;;;;;2097992;28;19920;-44
2022/10/17 00:37:16;;;;;;;;;;;;;;;;;;2097824;28;20301;-44
2022/10/17 00:38:16;;;;;;;;;;;;;;;;;;2097896;28;20377;-44
2022/10/17 00:39:17;;;;;;;;;;;;;;;;;;2097763;28;19924;-44
2022/10/17 00:40:18;;;;;;;;;;;;;;;;;;2097861;28;19998;-44
2022/10/17 00:41:19;;;;;;;;;;;;;;;;;;2097876;28;20002;-44
2022/10/17 00:42:20;;;;;;;;;;;;;;;;;;2097910;28;20388;-44
2022/10/17 00:43:21;;;;;;;;;;;;;;;;;;2097894;28;19921;-44
2022/10/17 00:44:21;;;;;;;;;;;;;;;;;;2097962;28;19927;-44
2022/10/17 00:45:22;;;;;;;;;;;;;;;;;;2097897;28;19927;-44
2022/10/17 00:46:23;;;;;;;;;;;;;;;;;;2098000;28;19920;-44
2022/10/17 00:47:24;;;;;;;;;;;;;;;;;;2098272;28;19942;-44
2022/10/17 00:48:24;;;;;;;;;;;;;;;;;;2106174;28;20300;-44
2022/10/17 00:49:25;;;;;;;;;;;;;;;;;;2106252;28;20323;-44
2022/10/17 00:50:26;;;;;;;;;;;;;;;;;;2106197;28;19920;-44
2022/10/17 00:51:28;;;;;;;;;;;;;;;;;;2106187;28;19928;-44
2022/10/17 00:52:29;;;;;;;;;;;;;;;;;;2106256;28;19920;-44
2022/10/17 00:53:30;;;;;;;;;;;;;;;;;;2106202;28;19920;-44
2022/10/17 00:54:31;;;;;;;;;;;;;;;;;;2106085;28;19920;-44
2022/10/17 00:55:32;;;;;;;;;;;;;;;;;;2106324;28;19955;-44
2022/10/17 00:56:32;;;;;;;;;;;;;;;;;;2106070;28;20430;-44
2022/10/17 00:57:33;;;;;;;;;;;;;;;;;;2106170;28;19920;-44
2022/10/17 00:58:34;;;;;;;;;;;;;;;;;;2106329;28;20365;-44
2022/10/17 00:59:35;;;;;;;;;;;;;;;;;;2106050;28;20384;-44
2022/10/17 01:00:36;;;;;;;;;;;;;;;;;;2106298;28;19920;-44
2022/10/17 01:01:37;;;;;;;;;;;;;;;;;;2106114;28;20400;-44
2022/10/17 01:02:38;;;;;;;;;;;;;;;;;;2106288;28;20007;-44
2022/10/17 01:03:39;;;;;;;;;;;;;;;;;;2106144;28;19920;-44
2022/10/17 01:04:39;;;;;;;;;;;;;;;;;;2106244;28;20021;-44
2022/10/17 01:05:40;;;;;;;;;;;;;;;;;;2106216;28;19920;-44
2022/10/17 01:06:41;;;;;;;;;;;;;;;;;;2106441;28;20014;-44
2022/10/17 01:07:42;;;;;;;;;;;;;;;;;;2107536;28;19920;-44
2022/10/17 01:08:43;;;;;;;;;;;;;;;;;;2107605;28;19962;-44
2022/10/17 01:09:44;;;;;;;;;;;;;;;;;;2106745;28;20427;-44
2022/10/17 01:10:44;;;;;;;;;;;;;;;;;;2099187;28;19927;-44
2022/10/17 01:11:45;;;;;;;;;;;;;;;;;;2099192;28;19924;-44
2022/10/17 01:12:46;;;;;;;;;;;;;;;;;;2099156;28;19930;-44
2022/10/17 01:13:47;;;;;;;;;;;;;;;;;;2099319;28;20269;-44
2022/10/17 01:14:48;;;;;;;;;;;;;;;;;;2099160;28;19931;-44
2022/10/17 01:15:48;;;;;;;;;;;;;;;;;;2099117;28;19924;-44
2022/10/17 01:16:51;;;;;;;;;;;;;;;;;;2099175;28;19920;-44
2022/10/17 01:17:51;;;;;;;;;;;;;;;;;;2099177;28;19920;-44
2022/10/17 01:18:52;;;;;;;;;;;;;;;;;;2099121;28;19920;-44
2022/10/17 01:19:53;;;;;;;;;;;;;;;;;;2099044;28;19920;-44
2022/10/17 01:20:54;;;;;;;;;;;;;;;;;;2099124;28;19971;-44
2022/10/17 01:21:54;;;;;;;;;;;;;;;;;;2099018;28;19921;-44
2022/10/17 01:22:55;;;;;;;;;;;;;;;;;;2099255;28;19921;-44
2022/10/17 01:23:56;;;;;;;;;;;;;;;;;;2099143;28;19924;-44
2022/10/17 01:24:57;;;;;;;;;;;;;;;;;;2099047;28;19998;-44
2022/10/17 01:25:58;;;;;;;;;;;;;;;;;;2099104;28;19924;-44
2022/10/17 01:26:59;;;;;;;;;;;;;;;;;;2098991;28;19974;-44
2022/10/17 01:28:00;;;;;;;;;;;;;;;;;;2099187;28;19920;-44
2022/10/17 01:29:00;;;;;;;;;;;;;;;;;;2099118;28;19920;-44
2022/10/17 01:30:01;;;;;;;;;;;;;;;;;;2099193;28;19968;-44
2022/10/17 01:31:02;;;;;;;;;;;;;;;;;;2099077;28;19924;-44
2022/10/17 01:32:03;;;;;;;;;;;;;;;;;;2098988;28;19970;-44
2022/10/17 01:33:03;;;;;;;;;;;;;;;;;;2099128;28;19920;-44
2022/10/17 01:34:04;;;;;;;;;;;;;;;;;;2099018;28;19942;-43
2022/10/17 01:35:05;;;;;;;;;;;;;;;;;;2099098;28;20053;-44
2022/10/17 01:36:06;;;;;;;;;;;;;;;;;;2099022;28;19920;-43
2022/10/17 01:37:07;;;;;;;;;;;;;;;;;;2099052;28;20357;-43
2022/10/17 01:38:08;;;;;;;;;;;;;;;;;;2099009;28;20324;-43
2022/10/17 01:39:08;;;;;;;;;;;;;;;;;;2099133;28;19974;-43
2022/10/17 01:40:10;;;;;;;;;;;;;;;;;;2098849;28;19970;-44
2022/10/17 01:41:10;;;;;;;;;;;;;;;;;;2099168;28;19924;-43
2022/10/17 01:42:11;;;;;;;;;;;;;;;;;;2098900;28;20293;-43
2022/10/17 01:43:12;;;;;;;;;;;;;;;;;;2098975;28;19920;-43
2022/10/17 01:44:13;;;;;;;;;;;;;;;;;;2104123;28;19955;-43
2022/10/17 01:45:13;;;;;;;;;;;;;;;;;;2107433;28;20323;-43
2022/10/17 01:46:14;;;;;;;;;;;;;;;;;;2107319;28;19973;-43
2022/10/17 01:47:15;;;;;;;;;;;;;;;;;;2107274;28;20041;-43
2022/10/17 01:48:16;;;;;;;;;;;;;;;;;;2107303;28;19920;-43
2022/10/17 01:49:17;;;;;;;;;;;;;;;;;;2107306;28;19924;-43
2022/10/17 01:50:18;;;;;;;;;;;;;;;;;;2107446;28;19930;-43
2022/10/17 01:51:18;;;;;;;;;;;;;;;;;;2107258;28;20004;-43
2022/10/17 01:52:19;;;;;;;;;;;;;;;;;;2107211;28;19924;-43
2022/10/17 01:53:20;;;;;;;;;;;;;;;;;;2107217;28;19920;-43
2022/10/17 01:54:21;;;;;;;;;;;;;;;;;;2107404;28;19927;-43
2022/10/17 01:55:22;;;;;;;;;;;;;;;;;;2107288;28;20411;-43
2022/10/17 01:56:23;;;;;;;;;;;;;;;;;;2107445;28;20311;-43
2022/10/17 01:57:23;;;;;;;;;;;;;;;;;;2107284;28;19927;-44
2022/10/17 01:58:24;;;;;;;;;;;;;;;;;;2107287;28;20262;-43
2022/10/17 01:59:25;;;;;;;;;;;;;;;;;;2107199;28;19927;-43
2022/10/17 02:00:26;;;;;;;;;;;;;;;;;;2107177;28;19920;-44
2022/10/17 02:01:26;;;;;;;;;;;;;;;;;;2107231;28;19969;-43
2022/10/17 02:02:27;;;;;;;;;;;;;;;;;;2107132;28;20385;-43
2022/10/17 02:03:28;;;;;;;;;;;;;;;;;;2107345;28;19923;-43
2022/10/17 02:04:29;;;;;;;;;;;;;;;;;;2107183;28;19977;-43
2022/10/17 02:05:30;;;;;;;;;;;;;;;;;;2107385;28;19954;-43
2022/10/17 02:06:31;;;;;;;;;;;;;;;;;;2107120;28;20392;-43
2022/10/17 02:07:31;;;;;;;;;;;;;;;;;;2107346;28;20312;-43
2022/10/17 02:08:32;;;;;;;;;;;;;;;;;;2107183;28;19943;-43
2022/10/17 02:09:33;;;;;;;;;;;;;;;;;;2107131;28;19920;-43
2022/10/17 02:10:34;;;;;;;;;;;;;;;;;;2099308;28;19966;-43
2022/10/17 02:11:35;;;;;;;;;;;;;;;;;;2098742;28;19975;-43
2022/10/17 02:12:36;;;;;;;;;;;;;;;;;;2098784;28;19924;-43
2022/10/17 02:13:37;;;;;;;;;;;;;;;;;;2098848;28;19927;-44
2022/10/17 02:14:38;;;;;;;;;;;;;;;;;;2098778;28;20015;-43
2022/10/17 02:15:38;;;;;;;;;;;;;;;;;;2098762;28;19966;-43
2022/10/17 02:16:39;;;;;;;;;;;;;;;;;;2098695;28;19927;-43
2022/10/17 02:17:40;;;;;;;;;;;;;;;;;;2098400;28;19920;-43
2022/10/17 02:18:41;;;;;;;;;;;;;;;;;;2098775;28;19928;-43
2022/10/17 02:19:42;;;;;;;;;;;;;;;;;;2098676;28;19920;-43
2022/10/17 02:20:43;;;;;;;;;;;;;;;;;;2098742;28;19970;-43
2022/10/17 02:21:43;;;;;;;;;;;;;;;;;;2098688;28;19928;-42
2022/10/17 02:22:44;;;;;;;;;;;;;;;;;;2098799;28;19963;-44
2022/10/17 02:23:45;;;;;;;;;;;;;;;;;;2098743;28;20297;-43
2022/10/17 02:24:46;;;;;;;;;;;;;;;;;;2098657;28;20024;-43
2022/10/17 02:25:46;;;;;;;;;;;;;;;;;;2098707;28;19920;-43
2022/10/17 02:26:47;;;;;;;;;;;;;;;;;;2098749;28;19975;-42
2022/10/17 02:27:48;;;;;;;;;;;;;;;;;;2098822;28;20292;-43
2022/10/17 02:28:49;;;;;;;;;;;;;;;;;;2098795;28;19943;-43
2022/10/17 02:29:51;;;;;;;;;;;;;;;;;;2098671;28;19943;-42
2022/10/17 02:30:52;;;;;;;;;;;;;;;;;;2098771;28;19921;-43
2022/10/17 02:31:52;;;;;;;;;;;;;;;;;;2098536;28;19921;-42
2022/10/17 02:32:53;;;;;;;;;;;;;;;;;;2098819;28;19967;-43
2022/10/17 02:33:54;;;;;;;;;;;;;;;;;;2098718;28;19964;-43
2022/10/17 02:34:55;;;;;;;;;;;;;;;;;;2098677;28;20015;-43
2022/10/17 02:35:55;;;;;;;;;;;;;;;;;;2098721;28;19924;-43
2022/10/17 02:36:56;;;;;;;;;;;;;;;;;;2098609;28;20308;-43
2022/10/17 02:37:57;;;;;;;;;;;;;;;;;;2098699;28;19929;-43
2022/10/17 02:38:58;;;;;;;;;;;;;;;;;;2098735;28;19924;-43
2022/10/17 02:39:59;;;;;;;;;;;;;;;;;;2099603;28;19928;-44
2022/10/17 02:41:00;;;;;;;;;;;;;;;;;;2106964;28;19964;-43
2022/10/17 02:42:00;;;;;;;;;;;;;;;;;;2107074;28;19927;-43
2022/10/17 02:43:01;;;;;;;;;;;;;;;;;;2106875;28;19931;-43
2022/10/17 02:44:02;;;;;;;;;;;;;;;;;;2107095;28;20020;-43
2022/10/17 02:45:03;;;;;;;;;;;;;;;;;;2106963;28;20361;-43
2022/10/17 02:46:03;;;;;;;;;;;;;;;;;;2107056;28;19919;-43
2022/10/17 02:47:04;;;;;;;;;;;;;;;;;;2106843;28;19920;-42
2022/10/17 02:48:05;;;;;;;;;;;;;;;;;;2106954;28;19920;-43
2022/10/17 02:49:06;;;;;;;;;;;;;;;;;;2107012;28;19919;-44
2022/10/17 02:50:07;;;;;;;;;;;;;;;;;;2107021;28;20301;-43
2022/10/17 02:51:08;;;;;;;;;;;;;;;;;;2107083;28;20376;-44
2022/10/17 02:52:08;;;;;;;;;;;;;;;;;;2106820;28;19972;-43
2022/10/17 02:53:09;;;;;;;;;;;;;;;;;;2106895;28;19927;-44
2022/10/17 02:54:10;;;;;;;;;;;;;;;;;;2106943;28;20376;-43
2022/10/17 02:55:11;;;;;;;;;;;;;;;;;;2106814;28;19977;-43
2022/10/17 02:56:11;;;;;;;;;;;;;;;;;;2106845;28;19927;-43
2022/10/17 02:57:12;;;;;;;;;;;;;;;;;;2106907;28;20018;-43
2022/10/17 02:58:13;;;;;;;;;;;;;;;;;;2106927;28;20391;-45
2022/10/17 02:59:14;;;;;;;;;;;;;;;;;;2107006;28;19943;-44
2022/10/17 03:00:15;;;;;;;;;;;;;;;;;;2106727;28;20383;-45
2022/10/17 03:01:16;;;;;;;;;;;;;;;;;;2106980;28;19959;-44
2022/10/17 03:02:16;;;;;;;;;;;;;;;;;;2106905;28;20269;-45
2022/10/17 03:03:17;;;;;;;;;;;;;;;;;;2106764;28;19983;-43
2022/10/17 03:04:18;;;;;;;;;;;;;;;;;;2106932;28;19924;-44
2022/10/17 03:05:19;;;;;;;;;;;;;;;;;;2106888;28;20335;-44
2022/10/17 03:06:20;;;;;;;;;;;;;;;;;;2106933;28;20293;-44
2022/10/17 03:07:20;;;;;;;;;;;;;;;;;;2106677;28;20292;-45
2022/10/17 03:08:21;;;;;;;;;;;;;;;;;;2106932;28;19920;-45
2022/10/17 03:09:22;;;;;;;;;;;;;;;;;;2106917;28;20117;-45
2022/10/17 03:10:23;;;;;;;;;;;;;;;;;;2100457;28;20316;-45
2022/10/17 03:11:24;;;;;;;;;;;;;;;;;;2098559;28;20370;-45
2022/10/17 03:12:24;;;;;;;;;;;;;;;;;;2098319;28;19921;-43
2022/10/17 03:13:25;;;;;;;;;;;;;;;;;;2098396;28;20015;-44
2022/10/17 03:14:26;;;;;;;;;;;;;;;;;;2098444;28;19920;-45
2022/10/17 03:15:27;;;;;;;;;;;;;;;;;;2098456;28;20274;-45
2022/10/17 03:16:28;;;;;;;;;;;;;;;;;;2098319;28;19920;-44
2022/10/17 03:17:28;;;;;;;;;;;;;;;;;;2098478;28;20384;-44
2022/10/17 03:18:29;;;;;;;;;;;;;;;;;;2098391;28;19983;-43
2022/10/17 03:19:30;;;;;;;;;;;;;;;;;;2098356;28;19942;-44
2022/10/17 03:20:31;;;;;;;;;;;;;;;;;;2098387;28;20003;-45
2022/10/17 03:21:32;;;;;;;;;;;;;;;;;;2098381;28;20361;-45
2022/10/17 03:22:32;;;;;;;;;;;;;;;;;;2098459;28;19920;-45
2022/10/17 03:23:33;;;;;;;;;;;;;;;;;;2098364;28;19967;-45
2022/10/17 03:24:34;;;;;;;;;;;;;;;;;;2098444;28;19973;-45
2022/10/17 03:25:35;;;;;;;;;;;;;;;;;;2098363;28;19921;-45
2022/10/17 03:26:36;;;;;;;;;;;;;;;;;;2098252;28;19974;-45
2022/10/17 03:27:37;;;;;;;;;;;;;;;;;;2098262;28;19921;-45
2022/10/17 03:28:37;;;;;;;;;;;;;;;;;;2098330;28;19921;-45
2022/10/17 03:29:38;;;;;;;;;;;;;;;;;;2097569;28;19924;-45
2022/10/17 03:30:39;;;;;;;;;;;;;;;;;;2098428;28;19924;-45
2022/10/17 03:31:40;;;;;;;;;;;;;;;;;;2098218;28;20015;-45
2022/10/17 03:32:41;;;;;;;;;;;;;;;;;;2098222;28;19943;-45
2022/10/17 03:33:42;;;;;;;;;;;;;;;;;;2098300;28;19963;-45
2022/10/17 03:34:42;;;;;;;;;;;;;;;;;;2098256;28;19920;-45
2022/10/17 03:35:43;;;;;;;;;;;;;;;;;;2098269;28;19975;-45
2022/10/17 03:36:44;;;;;;;;;;;;;;;;;;2104444;28;19920;-45
2022/10/17 03:37:45;;;;;;;;;;;;;;;;;;2106667;28;19927;-45
2022/10/17 03:38:46;;;;;;;;;;;;;;;;;;2106576;28;19977;-45
2022/10/17 03:39:47;;;;;;;;;;;;;;;;;;2106639;28;19924;-45
2022/10/17 03:40:48;;;;;;;;;;;;;;;;;;2106558;28;19975;-45
2022/10/17 03:41:49;;;;;;;;;;;;;;;;;;2106480;28;19924;-45
2022/10/17 03:42:50;;;;;;;;;;;;;;;;;;2106662;28;20010;-45
2022/10/17 03:43:50;;;;;;;;;;;;;;;;;;2106550;28;20027;-45
2022/10/17 03:44:51;;;;;;;;;;;;;;;;;;2106678;28;20014;-45
2022/10/17 03:45:52;;;;;;;;;;;;;;;;;;2106711;28;19920;-45
2022/10/17 03:46:53;;;;;;;;;;;;;;;;;;2106468;28;20015;-45
2022/10/17 03:47:54;;;;;;;;;;;;;;;;;;2106546;28;19920;-45
2022/10/17 03:48:54;;;;;;;;;;;;;;;;;;2106533;28;19927;-45
2022/10/17 03:49:55;;;;;;;;;;;;;;;;;;2106581;28;20058;-44
2022/10/17 03:50:56;;;;;;;;;;;;;;;;;;2106691;28;20272;-45
2022/10/17 03:51:57;;;;;;;;;;;;;;;;;;2106594;28;19920;-45
2022/10/17 03:52:58;;;;;;;;;;;;;;;;;;2106476;28;19971;-45
2022/10/17 03:53:58;;;;;;;;;;;;;;;;;;2106552;28;20018;-44
2022/10/17 03:54:59;;;;;;;;;;;;;;;;;;2104446;28;19920;-45
2022/10/17 03:56:00;;;;;;;;;;;;;;;;;;2098102;28;19951;-45
2022/10/17 03:57:01;;;;;;;;;;;;;;;;;;2098073;28;20373;-45
2022/10/17 03:58:02;;;;;;;;;;;;;;;;;;2098220;28;19956;-45
2022/10/17 03:59:02;;;;;;;;;;;;;;;;;;2098185;28;19927;-45
2022/10/17 04:00:04;;;;;;;;;;;;;;;;;;2098042;28;19921;-45
2022/10/17 04:01:05;;;;;;;;;;;;;;;;;;2098202;28;19928;-45
2022/10/17 04:02:05;;;;;;;;;;;;;;;;;;2098085;28;19943;-45
2022/10/17 04:03:06;;;;;;;;;;;;;;;;;;2098257;28;20361;-45
2022/10/17 04:04:07;;;;;;;;;;;;;;;;;;2098090;28;19943;-45
2022/10/17 04:05:08;;;;;;;;;;;;;;;;;;2098057;28;20304;-45
2022/10/17 04:06:09;;;;;;;;;;;;;;;;;;2098118;28;20011;-45
2022/10/17 04:07:10;;;;;;;;;;;;;;;;;;2098013;28;20281;-45
2022/10/17 04:08:10;;;;;;;;;;;;;;;;;;2098077;28;19920;-45
2022/10/17 04:09:11;;;;;;;;;;;;;;;;;;2098112;28;19920;-45
2022/10/17 04:10:12;;;;;;;;;;;;;;;;;;2098007;28;19920;-45
2022/10/17 04:11:13;;;;;;;;;;;;;;;;;;2098065;28;19959;-45
2022/10/17 04:12:13;;;;;;;;;;;;;;;;;;2098076;28;19920;-45
2022/10/17 04:13:14;;;;;;;;;;;;;;;;;;2098045;28;20493;-45
2022/10/17 04:14:15;;;;;;;;;;;;;;;;;;2098143;28;19927;-45
2022/10/17 04:15:16;;;;;;;;;;;;;;;;;;2097960;28;19921;-45
2022/10/17 04:16:17;;;;;;;;;;;;;;;;;;2098110;28;20397;-45
2022/10/17 04:17:18;;;;;;;;;;;;;;;;;;2098000;28;19952;-45
2022/10/17 04:18:18;;;;;;;;;;;;;;;;;;2098127;28;19925;-45
2022/10/17 04:19:19;;;;;;;;;;;;;;;;;;2098056;28;20333;-45
2022/10/17 04:20:20;;;;;;;;;;;;;;;;;;2097917;28;19927;-45
2022/10/17 04:21:21;;;;;;;;;;;;;;;;;;2097957;28;19942;-45
2022/10/17 04:22:22;;;;;;;;;;;;;;;;;;2097864;28;19927;-45
2022/10/17 04:23:22;;;;;;;;;;;;;;;;;;2098019;28;19920;-44
2022/10/17 04:24:24;;;;;;;;;;;;;;;;;;2097950;28;19921;-45
2022/10/17 04:25:25;;;;;;;;;;;;;;;;;;2098076;28;19969;-45
2022/10/17 04:26:26;;;;;;;;;;;;;;;;;;2098009;28;20013;-45
2022/10/17 04:27:26;;;;;;;;;;;;;;;;;;2098040;28;19974;-45
2022/10/17 04:28:27;;;;;;;;;;;;;;;;;;2098001;28;20397;-45
2022/10/17 04:29:28;;;;;;;;;;;;;;;;;;2097927;28;19947;-45
2022/10/17 04:30:29;;;;;;;;;;;;;;;;;;2097990;28;19920;-45
2022/10/17 04:31:30;;;;;;;;;;;;;;;;;;2097939;28;20285;-45
2022/10/17 04:32:32;;;;;;;;;;;;;;;;;;2100136;28;19924;-45
2022/10/17 04:33:32;;;;;;;;;;;;;;;;;;2106406;28;19949;-45
2022/10/17 04:34:33;;;;;;;;;;;;;;;;;;2106308;28;20060;-45
2022/10/17 04:35:34;;;;;;;;;;;;;;;;;;2106230;28;19928;-44
2022/10/17 04:36:35;;;;;;;;;;;;;;;;;;2106201;28;19967;-45
2022/10/17 04:37:36;;;;;;;;;;;;;;;;;;2106238;28;19924;-45
2022/10/17 04:38:37;;;;;;;;;;;;;;;;;;2106453;28;20365;-45
2022/10/17 04:39:37;;;;;;;;;;;;;;;;;;2106331;28;19924;-45
2022/10/17 04:40:38;;;;;;;;;;;;;;;;;;2106509;28;19924;-45
2022/10/17 04:41:39;;;;;;;;;;;;;;;;;;2107761;28;19920;-45
2022/10/17 04:42:40;;;;;;;;;;;;;;;;;;2107836;28;19920;-44
2022/10/17 04:43:41;;;;;;;;;;;;;;;;;;2107825;28;19920;-45
2022/10/17 04:44:43;;;;;;;;;;;;;;;;;;2107672;28;19920;-45
2022/10/17 04:45:43;;;;;;;;;;;;;;;;;;2107738;28;20076;-45
2022/10/17 04:46:44;;;;;;;;;;;;;;;;;;2107632;28;19927;-44
2022/10/17 04:47:45;;;;;;;;;;;;;;;;;;2107748;28;19920;-44
2022/10/17 04:48:46;;;;;;;;;;;;;;;;;;2107666;28;19923;-45
2022/10/17 04:49:46;;;;;;;;;;;;;;;;;;2107695;28;19920;-45
2022/10/17 04:50:47;;;;;;;;;;;;;;;;;;2107745;28;19930;-45
2022/10/17 04:51:48;;;;;;;;;;;;;;;;;;2107727;28;19920;-45
2022/10/17 04:52:49;;;;;;;;;;;;;;;;;;2107743;28;20430;-44
2022/10/17 04:53:50;;;;;;;;;;;;;;;;;;2107817;28;20010;-45
2022/10/17 04:54:51;;;;;;;;;;;;;;;;;;2107775;28;19943;-45
2022/10/17 04:55:51;;;;;;;;;;;;;;;;;;2107650;28;19974;-45
2022/10/17 04:56:52;;;;;;;;;;;;;;;;;;2107647;28;19927;-45
2022/10/17 04:57:53;;;;;;;;;;;;;;;;;;2107623;28;19924;-43
2022/10/17 04:58:54;;;;;;;;;;;;;;;;;;2107638;28;19920;-45
2022/10/17 04:59:55;;;;;;;;;;;;;;;;;;2107626;28;19970;-45
2022/10/17 05:00:55;;;;;;;;;;;;;;;;;;2107778;28;19924;-45
2022/10/17 05:01:56;;;;;;;;;;;;;;;;;;2107432;28;19920;-45
2022/10/17 05:02:57;;;;;;;;;;;;;;;;;;2107769;28;19920;-44
2022/10/17 05:03:58;;;;;;;;;;;;;;;;;;2107736;28;20467;-45
2022/10/17 05:04:59;;;;;;;;;;;;;;;;;;2107580;28;19924;-45
2022/10/17 05:05:59;;;;;;;;;;;;;;;;;;2107586;28;20399;-45
2022/10/17 05:07:00;;;;;;;;;;;;;;;;;;2107448;28;19920;-45
2022/10/17 05:08:01;;;;;;;;;;;;;;;;;;2107697;28;20361;-44
2022/10/17 05:09:02;;;;;;;;;;;;;;;;;;2107600;28;20285;-45
2022/10/17 05:10:03;;;;;;;;;;;;;;;;;;2104043;28;19926;-44
2022/10/17 05:11:04;;;;;;;;;;;;;;;;;;2099265;28;20315;-45
2022/10/17 05:12:05;;;;;;;;;;;;;;;;;;2099301;28;20362;-45
2022/10/17 05:13:08;;;;;;;;;;;;;;;;;;2099108;28;19920;-44
2022/10/17 05:14:09;;;;;;;;;;;;;;;;;;2099163;28;19967;-45
2022/10/17 05:15:10;;;;;;;;;;;;;;;;;;2099254;28;19921;-45
2022/10/17 05:16:11;;;;;;;;;;;;;;;;;;2099143;28;20285;-45
2022/10/17 05:17:11;;;;;;;;;;;;;;;;;;2099128;28;19928;-45
2022/10/17 05:18:12;;;;;;;;;;;;;;;;;;2099121;28;19920;-45
2022/10/17 05:19:13;;;;;;;;;;;;;;;;;;2099114;28;19920;-45
2022/10/17 05:20:14;;;;;;;;;;;;;;;;;;2099114;28;19970;-45
2022/10/17 05:21:15;;;;;;;;;;;;;;;;;;2099297;28;19946;-44
2022/10/17 05:22:15;;;;;;;;;;;;;;;;;;2099112;28;20408;-44
2022/10/17 05:23:16;;;;;;;;;;;;;;;;;;2099232;28;19921;-45
2022/10/17 05:24:17;;;;;;;;;;;;;;;;;;2099210;28;19964;-45
2022/10/17 05:25:18;;;;;;;;;;;;;;;;;;2099079;28;19931;-45
2022/10/17 05:26:19;;;;;;;;;;;;;;;;;;2099144;28;19932;-45
2022/10/17 05:27:19;;;;;;;;;;;;;;;;;;2099065;28;19928;-44
2022/10/17 05:28:20;;;;;;;;;;;;;;;;;;2099103;28;19972;-45
2022/10/17 05:29:21;;;;;;;;;;;;;;;;;;2105339;28;19927;-44
2022/10/17 05:30:22;;;;;;;;;;;;;;;;;;2107434;28;20070;-45
2022/10/17 05:31:23;;;;;;;;;;;;;;;;;;2107460;28;19924;-45
2022/10/17 05:32:24;;;;;;;;;;;;;;;;;;2107397;28;19920;-45
2022/10/17 05:33:25;;;;;;;;;;;;;;;;;;2107396;28;19919;-45
2022/10/17 05:34:25;;;;;;;;;;;;;;;;;;2107528;28;20369;-45
2022/10/17 05:35:26;;;;;;;;;;;;;;;;;;2107567;28;20358;-45
2022/10/17 05:36:27;;;;;;;;;;;;;;;;;;2107444;28;20285;-44
2022/10/17 05:37:28;;;;;;;;;;;;;;;;;;2107416;28;19927;-45
2022/10/17 05:38:29;;;;;;;;;;;;;;;;;;2107333;28;19931;-45
2022/10/17 05:39:30;;;;;;;;;;;;;;;;;;2107548;28;20474;-45
2022/10/17 05:40:30;;;;;;;;;;;;;;;;;;2107244;28;19963;-45
2022/10/17 05:41:31;;;;;;;;;;;;;;;;;;2107492;28;19920;-45
2022/10/17 05:42:32;;;;;;;;;;;;;;;;;;2107434;28;19966;-45
2022/10/17 05:43:33;;;;;;;;;;;;;;;;;;2107460;28;19920;-45
2022/10/17 05:44:34;;;;;;;;;;;;;;;;;;2107421;28;19920;-45
2022/10/17 05:45:35;;;;;;;;;;;;;;;;;;2107352;28;20011;-44
2022/10/17 05:46:36;;;;;;;;;;;;;;;;;;2107406;28;19926;-45
2022/10/17 05:47:37;;;;;;;;;;;;;;;;;;2107391;28;20486;-45
2022/10/17 05:48:38;;;;;;;;;;;;;;;;;;2107381;28;19927;-45
2022/10/17 05:49:38;;;;;;;;;;;;;;;;;;2107331;28;19924;-45
2022/10/17 05:50:48;;;;;;;;;;;;;;;;;;2107483;28;19930;-45
2022/10/17 05:51:49;;;;;;;;;;;;;;;;;;2107098;28;19920;-46
2022/10/17 05:52:50;;;;;;;;;;;;;;;;;;2106311;28;20272;-45
2022/10/17 05:53:51;;;;;;;;;;;;;;;;;;2107342;28;19920;-45
2022/10/17 05:54:52;;;;;;;;;;;;;;;;;;2107247;28;19942;-45
2022/10/17 05:55:52;;;;;;;;;;;;;;;;;;2107271;28;19919;-45
2022/10/17 05:56:53;;;;;;;;;;;;;;;;;;2107344;28;19920;-45
2022/10/17 05:57:54;;;;;;;;;;;;;;;;;;2107376;28;19973;-45
2022/10/17 05:58:55;;;;;;;;;;;;;;;;;;2107281;28;19920;-42
2022/10/17 06:00:01;;;;;;;;;;;;;;;;;;2107192;28;20304;-45
2022/10/17 06:01:02;;;;;;;;;;;;;;;;;;2107234;28;20007;-45
2022/10/17 06:02:03;;;;;;;;;;;;;;;;;;2107119;28;20426;-45
2022/10/17 06:03:04;;;;;;;;;;;;;;;;;;2107224;28;19963;-45
2022/10/17 06:04:04;;;;;;;;;;;;;;;;;;2107363;28;20388;-45
2022/10/17 06:05:05;;;;;;;;;;;;;;;;;;2107203;28;19967;-45
2022/10/17 06:06:07;;;;;;;;;;;;;;;;;;2107207;28;19959;-45
2022/10/17 06:07:08;;;;;;;;;;;;;;;;;;2107243;28;19920;-45
2022/10/17 06:08:08;;;;;;;;;;;;;;;;;;2107219;28;19975;-45
2022/10/17 06:09:09;;;;;;;;;;;;;;;;;;2107213;28;19920;-45
2022/10/17 06:10:11;;;;;;;;;;;;;;;;;;2106972;28;19919;-45
2022/10/17 06:11:12;;;;;;;;;;;;;;;;;;2107191;28;19920;-45
2022/10/17 06:12:13;;;;;;;;;;;;;;;;;;2107134;28;19920;-45
2022/10/17 06:13:14;;;;;;;;;;;;;;;;;;2107150;28;19981;-45
2022/10/17 06:14:15;;;;;;;;;;;;;;;;;;2107115;28;20385;-44
2022/10/17 06:15:15;;;;;;;;;;;;;;;;;;2107269;28;19923;-45
2022/10/17 06:16:16;;;;;;;;;;;;;;;;;;2107291;28;20272;-45
2022/10/17 06:17:17;;;;;;;;;;;;;;;;;;2107067;28;19923;-45
2022/10/17 06:18:18;;;;;;;;;;;;;;;;;;2107137;28;19959;-45
2022/10/17 06:19:19;;;;;;;;;;;;;;;;;;2107179;28;19924;-45
2022/10/17 06:20:20;;;;;;;;;;;;;;;;;;2107017;28;19946;-45
2022/10/17 06:21:20;;;;;;;;;;;;;;;;;;2107083;28;19920;-45
2022/10/17 06:22:21;;;;;;;;;;;;;;;;;;2107157;28;19926;-43
2022/10/17 06:23:22;;;;;;;;;;;;;;;;;;2107106;28;19985;-44
2022/10/17 06:24:23;;;;;;;;;;;;;;;;;;2107197;28;20011;-43
2022/10/17 06:25:23;;;;;;;;;;;;;;;;;;2105795;28;20018;-44
2022/10/17 06:26:24;;;;;;;;;;;;;;;;;;2107101;28;19920;-43
2022/10/17 06:27:25;;;;;;;;;;;;;;;;;;2107111;28;20010;-44
2022/10/17 06:28:26;;;;;;;;;;;;;;;;;;2107210;28;19978;-43
2022/10/17 06:29:27;;;;;;;;;;;;;;;;;;2107141;28;19956;-43
2022/10/17 06:30:28;;;;;;;;;;;;;;;;;;2107011;28;19920;-43
2022/10/17 06:31:29;;;;;;;;;;;;;;;;;;2107106;28;20026;-43
2022/10/17 06:32:30;;;;;;;;;;;;;;;;;;2107067;28;20304;-44
2022/10/17 06:33:30;;;;;;;;;;;;;;;;;;2107171;28;19957;-43
2022/10/17 06:34:31;;;;;;;;;;;;;;;;;;2106958;28;20010;-43
2022/10/17 06:35:32;;;;;;;;;;;;;;;;;;2106989;28;19934;-43
2022/10/17 06:36:33;;;;;;;;;;;;;;;;;;2106906;28;19966;-43
2022/10/17 06:37:35;;;;;;;;;;;;;;;;;;2107131;28;20019;-43
2022/10/17 06:38:37;;;;;;;;;;;;;;;;;;2107012;28;20335;-43
2022/10/17 06:39:38;;;;;;;;;;;;;;;;;;2107087;28;20038;-43
2022/10/17 06:40:39;;;;;;;;;;;;;;;;;;2106902;28;20296;-45
2022/10/17 06:41:40;;;;;;;;;;;;;;;;;;2106845;28;19920;-43
2022/10/17 06:42:41;;;;;;;;;;;;;;;;;;2107141;28;19920;-43
2022/10/17 06:43:42;;;;;;;;;;;;;;;;;;2107005;28;20354;-44
2022/10/17 06:44:43;;;;;;;;;;;;;;;;;;2107133;28;19983;-43
2022/10/17 06:45:43;;;;;;;;;;;;;;;;;;2106913;28;19927;-43
2022/10/17 06:46:44;;;;;;;;;;;;;;;;;;2106997;28;19927;-43
2022/10/17 06:47:45;;;;;;;;;;;;;;;;;;2107016;28;20357;-44
2022/10/17 06:48:46;;;;;;;;;;;;;;;;;;2106954;28;20010;-45
2022/10/17 06:49:46;;;;;;;;;;;;;;;;;;2107038;28;19924;-43
2022/10/17 06:50:47;;;;;;;;;;;;;;;;;;2106892;28;20426;-45
2022/10/17 06:51:48;;;;;;;;;;;;;;;;;;2106883;28;19919;-46
2022/10/17 06:52:49;;;;;;;;;;;;;;;;;;2106889;28;19924;-44
2022/10/17 06:53:50;;;;;;;;;;;;;;;;;;2107026;28;20365;-43
2022/10/17 06:54:51;;;;;;;;;;;;;;;;;;2106914;28;20435;-44
2022/10/17 06:55:52;;;;;;;;;;;;;;;;;;2106854;28;19926;-45